createdAt,value
2019-03-30T00:00:02.759Z,25.67
2019-03-30T00:00:28.763Z,25.69
2019-03-30T00:00:54.854Z,25.69
2019-03-30T00:01:20.791Z,25.69
2019-03-30T00:01:46.766Z,25.66
2019-03-30T00:02:12.846Z,25.65
2019-03-30T00:02:38.773Z,25.63
2019-03-30T00:03:04.848Z,25.68
2019-03-30T00:03:30.772Z,25.69
2019-03-30T00:03:56.771Z,25.71
2019-03-30T00:04:22.772Z,25.71
2019-03-30T00:04:48.771Z,25.72
2019-03-30T00:05:14.864Z,25.71
2019-03-30T00:05:40.788Z,25.68
2019-03-30T00:06:06.863Z,25.64
2019-03-30T00:06:32.774Z,25.63
2019-03-30T00:06:58.775Z,25.65
2019-03-30T00:07:24.860Z,25.67
2019-03-30T00:07:50.778Z,25.65
2019-03-30T00:08:16.773Z,25.68
2019-03-30T00:08:42.781Z,25.64
2019-03-30T00:09:08.788Z,25.68
2019-03-30T00:09:34.862Z,25.67
2019-03-30T00:10:00.885Z,25.68
2019-03-30T00:10:26.867Z,25.7
2019-03-30T00:10:52.776Z,25.68
2019-03-30T00:11:18.780Z,25.66
2019-03-30T00:11:44.871Z,25.71
2019-03-30T00:12:10.785Z,25.7
2019-03-30T00:12:36.782Z,25.73
2019-03-30T00:13:02.790Z,25.74
2019-03-30T00:13:28.864Z,25.69
2019-03-30T00:13:54.873Z,25.71
2019-03-30T00:14:20.782Z,25.69
2019-03-30T00:14:46.787Z,25.7
2019-03-30T00:15:12.786Z,25.7
2019-03-30T00:15:38.787Z,25.73
2019-03-30T00:16:04.883Z,25.74
2019-03-30T00:16:30.863Z,25.73
2019-03-30T00:16:56.785Z,25.74
2019-03-30T00:17:22.787Z,25.74
2019-03-30T00:17:48.786Z,25.74
2019-03-30T00:18:14.873Z,25.72
2019-03-30T00:18:40.785Z,25.76
2019-03-30T00:19:06.785Z,25.77
2019-03-30T00:19:32.874Z,25.78
2019-03-30T00:19:58.801Z,25.75
2019-03-30T00:20:25.670Z,25.72
2019-03-30T00:20:50.800Z,25.71
2019-03-30T00:21:16.808Z,25.7
2019-03-30T00:21:42.801Z,25.71
2019-03-30T00:22:08.798Z,25.72
2019-03-30T00:22:34.900Z,25.74
2019-03-30T00:23:00.901Z,25.7
2019-03-30T00:23:26.796Z,25.74
2019-03-30T00:23:52.877Z,25.76
2019-03-30T00:24:18.801Z,25.75
2019-03-30T00:24:44.899Z,25.75
2019-03-30T00:25:10.899Z,25.73
2019-03-30T00:25:36.804Z,25.75
2019-03-30T00:26:02.820Z,25.75
2019-03-30T00:26:28.878Z,25.73
2019-03-30T00:26:54.889Z,25.74
2019-03-30T00:27:20.902Z,25.75
2019-03-30T00:27:46.809Z,25.75
2019-03-30T00:28:12.815Z,25.75
2019-03-30T00:28:38.810Z,25.74
2019-03-30T00:29:04.904Z,25.76
2019-03-30T00:29:31.009Z,25.74
2019-03-30T00:29:56.809Z,25.74
2019-03-30T00:30:22.815Z,25.76
2019-03-30T00:30:48.837Z,25.78
2019-03-30T00:31:14.907Z,25.76
2019-03-30T00:31:40.915Z,25.79
2019-03-30T00:32:06.823Z,25.8
2019-03-30T00:32:33.224Z,25.82
2019-03-30T00:32:58.819Z,25.79
2019-03-30T00:33:24.906Z,25.76
2019-03-30T00:33:50.913Z,25.8
2019-03-30T00:34:16.817Z,25.82
2019-03-30T00:34:42.824Z,25.8
2019-03-30T00:35:08.818Z,25.8
2019-03-30T00:35:34.979Z,25.82
2019-03-30T00:36:00.933Z,25.77
2019-03-30T00:36:26.816Z,25.72
2019-03-30T00:36:52.827Z,25.69
2019-03-30T00:37:18.824Z,25.75
2019-03-30T00:37:44.911Z,25.77
2019-03-30T00:38:10.913Z,25.76
2019-03-30T00:38:36.821Z,25.78
2019-03-30T00:39:02.816Z,25.79
2019-03-30T00:39:28.815Z,25.8
2019-03-30T00:39:54.915Z,25.8
2019-03-30T00:40:20.925Z,25.81
2019-03-30T00:40:46.832Z,25.76
2019-03-30T00:41:12.858Z,25.74
2019-03-30T00:41:38.824Z,25.71
2019-03-30T00:42:04.932Z,25.65
2019-03-30T00:42:31.011Z,25.68
2019-03-30T00:42:56.824Z,25.58
2019-03-30T00:43:22.829Z,25.65
2019-03-30T00:43:48.831Z,25.68
2019-03-30T00:44:14.921Z,25.7
2019-03-30T00:44:40.924Z,25.73
2019-03-30T00:45:06.843Z,25.71
2019-03-30T00:45:33.021Z,25.66
2019-03-30T00:45:58.823Z,25.69
2019-03-30T00:46:24.915Z,25.62
2019-03-30T00:46:50.934Z,25.64
2019-03-30T00:47:16.832Z,25.72
2019-03-30T00:47:42.837Z,25.7
2019-03-30T00:48:08.846Z,25.62
2019-03-30T00:48:34.918Z,25.61
2019-03-30T00:49:01.035Z,25.67
2019-03-30T00:49:26.832Z,25.63
2019-03-30T00:49:52.846Z,25.63
2019-03-30T00:50:18.834Z,25.61
2019-03-30T00:50:44.932Z,25.59
2019-03-30T00:51:10.947Z,25.57
2019-03-30T00:51:36.841Z,25.65
2019-03-30T00:52:02.844Z,25.67
2019-03-30T00:52:28.846Z,25.63
2019-03-30T00:52:55.002Z,25.65
2019-03-30T00:53:20.935Z,25.68
2019-03-30T00:53:46.843Z,25.7
2019-03-30T00:54:12.847Z,25.71
2019-03-30T00:54:38.847Z,25.72
2019-03-30T00:55:04.939Z,25.74
2019-03-30T00:55:30.952Z,25.75
2019-03-30T00:55:56.922Z,25.74
2019-03-30T00:56:22.847Z,25.75
2019-03-30T00:56:48.848Z,25.75
2019-03-30T00:57:14.938Z,25.76
2019-03-30T00:57:40.941Z,25.72
2019-03-30T00:58:06.853Z,25.75
2019-03-30T00:58:32.861Z,25.75
2019-03-30T00:58:58.851Z,25.71
2019-03-30T00:59:24.934Z,25.74
2019-03-30T00:59:50.949Z,25.71
2019-03-30T01:00:16.844Z,25.71
2019-03-30T01:00:42.857Z,25.7
2019-03-30T01:01:08.857Z,25.71
2019-03-30T01:01:34.943Z,25.74
2019-03-30T01:02:00.974Z,25.75
2019-03-30T01:02:26.864Z,25.77
2019-03-30T01:02:52.860Z,25.77
2019-03-30T01:03:18.923Z,25.76
2019-03-30T01:03:44.938Z,25.71
2019-03-30T01:04:10.956Z,25.74
2019-03-30T01:04:36.857Z,25.76
2019-03-30T01:05:02.865Z,25.76
2019-03-30T01:05:28.874Z,25.77
2019-03-30T01:05:55.023Z,25.79
2019-03-30T01:06:20.949Z,25.78
2019-03-30T01:06:46.855Z,25.79
2019-03-30T01:07:12.873Z,25.77
2019-03-30T01:07:38.867Z,25.79
2019-03-30T01:08:04.954Z,25.78
2019-03-30T01:08:30.967Z,25.76
2019-03-30T01:08:56.861Z,25.77
2019-03-30T01:09:22.871Z,25.8
2019-03-30T01:09:48.875Z,25.83
2019-03-30T01:10:14.966Z,25.83
2019-03-30T01:10:40.973Z,25.84
2019-03-30T01:11:06.870Z,25.83
2019-03-30T01:11:32.882Z,25.83
2019-03-30T01:11:58.943Z,25.82
2019-03-30T01:12:25.043Z,25.84
2019-03-30T01:12:50.968Z,25.85
2019-03-30T01:13:16.877Z,25.86
2019-03-30T01:13:42.883Z,25.87
2019-03-30T01:14:08.881Z,25.87
2019-03-30T01:14:34.967Z,25.9
2019-03-30T01:15:00.999Z,25.9
2019-03-30T01:15:26.888Z,25.89
2019-03-30T01:15:52.964Z,25.91
2019-03-30T01:16:18.870Z,25.91
2019-03-30T01:16:44.955Z,25.91
2019-03-30T01:17:10.980Z,25.93
2019-03-30T01:17:36.881Z,25.95
2019-03-30T01:18:03.573Z,25.93
2019-03-30T01:18:28.867Z,25.92
2019-03-30T01:18:54.996Z,25.91
2019-03-30T01:19:20.875Z,25.93
2019-03-30T01:19:46.865Z,25.95
2019-03-30T01:20:12.868Z,25.95
2019-03-30T01:20:38.869Z,25.95
2019-03-30T01:21:04.954Z,25.97
2019-03-30T01:21:30.870Z,25.95
2019-03-30T01:21:56.873Z,25.96
2019-03-30T01:22:22.872Z,25.95
2019-03-30T01:22:48.879Z,25.96
2019-03-30T01:23:14.955Z,25.93
2019-03-30T01:23:40.872Z,25.92
2019-03-30T01:24:06.873Z,25.91
2019-03-30T01:24:33.188Z,25.87
2019-03-30T01:24:58.878Z,25.89
2019-03-30T01:25:24.960Z,25.88
2019-03-30T01:25:50.877Z,25.92
2019-03-30T01:26:16.890Z,25.94
2019-03-30T01:26:42.881Z,25.94
2019-03-30T01:27:08.895Z,25.96
2019-03-30T01:27:34.957Z,25.93
2019-03-30T01:28:00.900Z,25.94
2019-03-30T01:28:26.877Z,25.94
2019-03-30T01:28:52.879Z,25.93
2019-03-30T01:29:18.882Z,25.89
2019-03-30T01:29:45.300Z,25.84
2019-03-30T01:30:11.062Z,25.85
2019-03-30T01:30:36.887Z,25.89
2019-03-30T01:31:02.892Z,25.9
2019-03-30T01:31:28.957Z,25.89
2019-03-30T01:31:54.965Z,25.78
2019-03-30T01:32:20.887Z,25.81
2019-03-30T01:32:46.888Z,25.81
2019-03-30T01:33:12.888Z,25.82
2019-03-30T01:33:38.886Z,25.84
2019-03-30T01:34:04.970Z,25.78
2019-03-30T01:34:30.893Z,25.79
2019-03-30T01:34:57.059Z,25.85
2019-03-30T01:35:22.887Z,25.86
2019-03-30T01:35:48.890Z,25.88
2019-03-30T01:36:14.976Z,25.86
2019-03-30T01:36:40.895Z,25.84
2019-03-30T01:37:06.893Z,25.85
2019-03-30T01:37:32.903Z,25.84
2019-03-30T01:37:58.889Z,25.82
2019-03-30T01:38:24.972Z,25.84
2019-03-30T01:38:50.895Z,25.85
2019-03-30T01:39:16.897Z,25.83
2019-03-30T01:39:42.895Z,25.79
2019-03-30T01:40:08.898Z,25.85
2019-03-30T01:40:34.984Z,25.85
2019-03-30T01:41:00.919Z,25.85
2019-03-30T01:41:26.900Z,25.81
2019-03-30T01:41:52.914Z,25.83
2019-03-30T01:42:18.909Z,25.84
2019-03-30T01:42:45.064Z,25.87
2019-03-30T01:43:10.909Z,25.87
2019-03-30T01:43:36.925Z,25.84
2019-03-30T01:44:02.907Z,25.9
2019-03-30T01:44:28.911Z,25.86
2019-03-30T01:44:54.997Z,25.86
2019-03-30T01:45:20.914Z,25.89
2019-03-30T01:45:46.909Z,25.89
2019-03-30T01:46:12.992Z,25.85
2019-03-30T01:46:38.914Z,25.89
2019-03-30T01:47:04.995Z,25.88
2019-03-30T01:47:30.913Z,25.89
2019-03-30T01:47:56.915Z,25.88
2019-03-30T01:48:22.914Z,25.91
2019-03-30T01:48:48.919Z,25.93
2019-03-30T01:49:15.014Z,25.95
2019-03-30T01:49:40.913Z,25.95
2019-03-30T01:50:06.921Z,25.96
2019-03-30T01:50:33.199Z,25.93
2019-03-30T01:50:58.919Z,25.94
2019-03-30T01:51:25.008Z,25.92
2019-03-30T01:51:50.926Z,25.94
2019-03-30T01:52:16.924Z,25.97
2019-03-30T01:52:42.920Z,25.95
2019-03-30T01:53:08.931Z,25.98
2019-03-30T01:53:35.025Z,25.99
2019-03-30T01:54:01.026Z,25.95
2019-03-30T01:54:26.921Z,25.99
2019-03-30T01:54:52.925Z,26
2019-03-30T01:55:18.919Z,26.01
2019-03-30T01:55:45.020Z,26
2019-03-30T01:56:10.927Z,26.02
2019-03-30T01:56:36.937Z,26.04
2019-03-30T01:57:02.926Z,26.04
2019-03-30T01:57:28.953Z,26.05
2019-03-30T01:57:55.014Z,25.97
2019-03-30T01:58:21.011Z,25.95
2019-03-30T01:58:46.924Z,26.02
2019-03-30T01:59:12.928Z,26.03
2019-03-30T01:59:38.931Z,26.02
2019-03-30T02:00:05.028Z,26.02
2019-03-30T02:00:30.930Z,26
2019-03-30T02:00:56.952Z,25.97
2019-03-30T02:01:23.039Z,25.96
2019-03-30T02:01:48.926Z,25.98
2019-03-30T02:02:15.013Z,26.01
2019-03-30T02:02:40.931Z,26.03
2019-03-30T02:03:06.940Z,26.05
2019-03-30T02:03:33.716Z,26.06
2019-03-30T02:03:58.947Z,26.07
2019-03-30T02:04:25.025Z,26.06
2019-03-30T02:04:50.941Z,26.04
2019-03-30T02:05:16.938Z,25.98
2019-03-30T02:05:42.942Z,25.96
2019-03-30T02:06:08.941Z,25.99
2019-03-30T02:06:35.026Z,26.03
2019-03-30T02:07:00.963Z,26.06
2019-03-30T02:07:26.944Z,26.08
2019-03-30T02:07:53.136Z,26.09
2019-03-30T02:08:18.941Z,26.11
2019-03-30T02:08:45.032Z,26.11
2019-03-30T02:09:10.947Z,26.11
2019-03-30T02:09:36.950Z,26.11
2019-03-30T02:10:02.945Z,26.12
2019-03-30T02:10:28.954Z,26.12
2019-03-30T02:10:55.030Z,26.11
2019-03-30T02:11:20.950Z,26.1
2019-03-30T02:11:46.946Z,26.11
2019-03-30T02:12:12.949Z,26.12
2019-03-30T02:12:38.956Z,26.14
2019-03-30T02:13:05.035Z,26.16
2019-03-30T02:13:30.958Z,26.15
2019-03-30T02:13:56.951Z,26.17
2019-03-30T02:14:23.034Z,26.18
2019-03-30T02:14:48.946Z,26.19
2019-03-30T02:15:15.026Z,26.19
2019-03-30T02:15:40.953Z,26.17
2019-03-30T02:16:06.500Z,26.18
2019-03-30T02:16:31.961Z,26.16
2019-03-30T02:16:57.966Z,26.19
2019-03-30T02:17:23.974Z,26.2
2019-03-30T02:17:49.965Z,26.21
2019-03-30T02:18:16.039Z,26.23
2019-03-30T02:18:41.958Z,26.18
2019-03-30T02:19:07.958Z,26.17
2019-03-30T02:19:33.964Z,26.18
2019-03-30T02:20:00.373Z,26.16
2019-03-30T02:20:25.961Z,26.18
2019-03-30T02:20:51.972Z,26.2
2019-03-30T02:21:18.051Z,26.2
2019-03-30T02:21:43.962Z,26.31
2019-03-30T02:22:09.965Z,26.44
2019-03-30T02:22:35.965Z,26.56
2019-03-30T02:23:02.123Z,26.65
2019-03-30T02:23:27.969Z,26.66
2019-03-30T02:23:53.964Z,26.66
2019-03-30T02:24:19.973Z,26.66
2019-03-30T02:24:45.983Z,26.68
2019-03-30T02:25:11.969Z,26.72
2019-03-30T02:25:38.052Z,26.73
2019-03-30T02:26:03.968Z,26.79
2019-03-30T02:26:29.978Z,26.79
2019-03-30T02:26:55.975Z,26.78
2019-03-30T02:27:21.971Z,26.77
2019-03-30T02:27:47.973Z,26.72
2019-03-30T02:28:13.985Z,26.72
2019-03-30T02:28:39.981Z,26.74
2019-03-30T02:29:06.059Z,26.73
2019-03-30T02:29:31.997Z,26.78
2019-03-30T02:29:57.972Z,26.77
2019-03-30T02:30:30.017Z,26.73
2019-03-30T02:30:55.946Z,26.8
2019-03-30T02:31:22.024Z,26.8
2019-03-30T02:31:48.533Z,26.85
2019-03-30T02:32:24.742Z,26.84
2019-03-30T02:33:17.401Z,26.88
2019-03-30T02:33:43.332Z,26.87
2019-03-30T02:34:24.969Z,26.89
2019-03-30T02:34:50.895Z,26.85
2019-03-30T02:35:16.980Z,26.79
2019-03-30T02:37:21.979Z,26.72
2019-03-30T02:37:47.905Z,26.74
2019-03-30T02:38:13.995Z,26.79
2019-03-30T02:38:39.904Z,26.8
2019-03-30T02:39:05.908Z,26.79
2019-03-30T02:39:31.961Z,26.71
2019-03-30T02:39:57.983Z,26.7
2019-03-30T02:40:23.985Z,26.71
2019-03-30T02:40:49.911Z,26.73
2019-03-30T02:41:15.910Z,26.77
2019-03-30T02:41:41.914Z,26.8
2019-03-30T02:42:36.948Z,26.71
2019-03-30T02:43:02.882Z,26.73
2019-03-30T02:43:28.955Z,26.74
2019-03-30T02:43:54.878Z,26.75
2019-03-30T02:44:20.876Z,26.75
2019-03-30T02:44:46.878Z,26.75
2019-03-30T02:45:17.775Z,26.79
2019-03-30T02:45:55.843Z,26.86
2019-03-30T02:46:47.498Z,26.91
2019-03-30T02:47:40.236Z,26.85
2019-03-30T02:48:44.150Z,26.73
2019-03-30T02:49:10.080Z,26.79
2019-03-30T02:49:36.157Z,26.83
2019-03-30T02:50:26.197Z,26.83
2019-03-30T02:51:22.600Z,26.87
2019-03-30T02:51:57.842Z,26.88
2019-03-30T02:53:53.357Z,26.83
2019-03-30T02:54:19.416Z,26.82
2019-03-30T02:56:48.037Z,26.49
2019-03-30T02:57:13.963Z,26.44
2019-03-30T02:57:40.051Z,26.48
2019-03-30T02:58:05.967Z,26.47
2019-03-30T02:58:31.965Z,26.44
2019-03-30T02:58:57.975Z,26.44
2019-03-30T02:59:24.034Z,26.45
2019-03-30T02:59:50.048Z,26.45
2019-03-30T03:00:15.967Z,26.47
2019-03-30T03:00:41.970Z,26.47
2019-03-30T03:01:07.967Z,26.5
2019-03-30T03:01:33.980Z,26.52
2019-03-30T03:02:00.148Z,26.54
2019-03-30T03:02:25.974Z,26.54
2019-03-30T03:02:51.977Z,26.57
2019-03-30T03:03:18.322Z,26.6
2019-03-30T03:03:43.979Z,26.57
2019-03-30T03:04:10.065Z,26.55
2019-03-30T03:04:36.051Z,26.56
2019-03-30T03:05:01.974Z,26.59
2019-03-30T03:05:27.978Z,26.62
2019-03-30T03:05:53.978Z,26.67
2019-03-30T03:06:20.064Z,26.7
2019-03-30T03:06:45.985Z,26.64
2019-03-30T03:07:12.055Z,26.6
2019-03-30T03:07:37.974Z,26.63
2019-03-30T03:08:03.985Z,26.66
2019-03-30T03:08:30.625Z,26.66
2019-03-30T03:08:55.983Z,26.64
2019-03-30T03:09:21.989Z,26.64
2019-03-30T03:09:48.049Z,26.65
2019-03-30T03:10:13.988Z,26.64
2019-03-30T03:10:40.064Z,26.61
2019-03-30T03:11:05.986Z,26.6
2019-03-30T03:11:31.982Z,26.57
2019-03-30T03:11:57.997Z,26.56
2019-03-30T03:12:24.052Z,26.57
2019-03-30T03:12:50.069Z,26.58
2019-03-30T03:13:15.989Z,26.59
2019-03-30T03:13:41.994Z,26.55
2019-03-30T03:14:07.995Z,26.56
2019-03-30T03:14:33.996Z,26.55
2019-03-30T03:15:00.146Z,26.57
2019-03-30T03:15:25.992Z,26.57
2019-03-30T03:15:51.993Z,26.55
2019-03-30T03:16:17.991Z,26.55
2019-03-30T03:16:43.993Z,26.58
2019-03-30T03:17:10.090Z,26.56
2019-03-30T03:17:35.992Z,26.56
2019-03-30T03:18:01.991Z,26.52
2019-03-30T03:18:27.992Z,26.51
2019-03-30T03:18:54.000Z,26.53
2019-03-30T03:19:20.077Z,26.52
2019-03-30T03:19:46.000Z,26.51
2019-03-30T03:20:12.015Z,26.51
2019-03-30T03:20:38.068Z,26.51
2019-03-30T03:21:03.993Z,26.51
2019-03-30T03:21:30.084Z,26.49
2019-03-30T03:21:56.000Z,26.5
2019-03-30T03:22:21.999Z,26.51
2019-03-30T03:22:48.009Z,26.49
2019-03-30T03:23:14.016Z,26.51
2019-03-30T03:23:40.154Z,26.51
2019-03-30T03:24:05.999Z,26.45
2019-03-30T03:24:32.576Z,26.45
2019-03-30T03:24:58.013Z,26.39
2019-03-30T03:25:24.009Z,26.18
2019-03-30T03:25:50.098Z,26.17
2019-03-30T03:26:16.084Z,26.1
2019-03-30T03:26:42.016Z,26.01
2019-03-30T03:27:08.019Z,25.89
2019-03-30T03:27:34.015Z,25.71
2019-03-30T03:28:00.098Z,25.38
2019-03-30T03:28:26.016Z,25.2
2019-03-30T03:28:52.082Z,24.92
2019-03-30T03:29:18.014Z,24.69
2019-03-30T03:29:44.021Z,24.57
2019-03-30T03:30:10.102Z,24.49
2019-03-30T03:30:36.024Z,24.47
2019-03-30T03:31:02.020Z,24.49
2019-03-30T03:31:28.083Z,24.52
2019-03-30T03:31:54.012Z,24.59
2019-03-30T03:32:20.090Z,24.6
2019-03-30T03:32:46.020Z,24.62
2019-03-30T03:33:12.018Z,24.66
2019-03-30T03:33:38.023Z,24.6
2019-03-30T03:34:04.091Z,24.63
2019-03-30T03:34:30.099Z,24.64
2019-03-30T03:34:56.017Z,24.68
2019-03-30T03:35:22.018Z,24.73
2019-03-30T03:35:48.226Z,24.79
2019-03-30T03:36:14.439Z,24.84
2019-03-30T03:36:40.174Z,24.89
2019-03-30T03:37:06.026Z,24.9
2019-03-30T03:37:32.027Z,24.92
2019-03-30T03:37:58.032Z,24.97
2019-03-30T03:38:24.020Z,25.02
2019-03-30T03:38:50.115Z,25.04
2019-03-30T03:39:16.103Z,25.09
2019-03-30T03:39:42.023Z,25.1
2019-03-30T03:40:08.027Z,25.08
2019-03-30T03:40:34.030Z,25.14
2019-03-30T03:41:00.112Z,25.12
2019-03-30T03:41:26.035Z,25.17
2019-03-30T03:41:52.104Z,25.18
2019-03-30T03:42:18.026Z,25.23
2019-03-30T03:42:44.036Z,25.26
2019-03-30T03:43:10.114Z,25.27
2019-03-30T03:43:36.034Z,25.27
2019-03-30T03:44:02.043Z,25.26
2019-03-30T03:44:28.100Z,25.28
2019-03-30T03:44:54.030Z,25.24
2019-03-30T03:45:20.117Z,25.23
2019-03-30T03:45:46.034Z,25.26
2019-03-30T03:46:12.037Z,25.26
2019-03-30T03:46:38.048Z,25.24
2019-03-30T03:47:04.106Z,25.24
2019-03-30T03:47:30.119Z,25.25
2019-03-30T03:47:56.036Z,25.21
2019-03-30T03:48:22.039Z,25.17
2019-03-30T03:48:48.388Z,25.18
2019-03-30T03:49:14.050Z,25.17
2019-03-30T03:49:40.186Z,25.18
2019-03-30T03:50:06.044Z,25.18
2019-03-30T03:50:32.040Z,25.17
2019-03-30T03:50:58.040Z,25.16
2019-03-30T03:51:24.046Z,25.17
2019-03-30T03:51:50.140Z,25.19
2019-03-30T03:52:16.119Z,25.16
2019-03-30T03:52:42.043Z,25.1
2019-03-30T03:53:08.046Z,25.09
2019-03-30T03:53:34.065Z,25.09
2019-03-30T03:54:01.006Z,25.1
2019-03-30T03:54:26.054Z,25.12
2019-03-30T03:54:52.126Z,25.11
2019-03-30T03:55:18.044Z,25.11
2019-03-30T03:55:44.049Z,25.13
2019-03-30T03:56:10.138Z,25.16
2019-03-30T03:56:36.049Z,25.11
2019-03-30T03:57:02.071Z,25.12
2019-03-30T03:57:28.122Z,25.06
2019-03-30T03:57:54.053Z,25.13
2019-03-30T03:58:20.144Z,25.09
2019-03-30T03:58:46.049Z,25.13
2019-03-30T03:59:12.054Z,25.15
2019-03-30T03:59:38.062Z,25.11
2019-03-30T04:00:04.455Z,25.15
2019-03-30T04:00:30.142Z,25.19
2019-03-30T04:00:56.053Z,25.22
2019-03-30T04:01:22.053Z,25.23
2019-03-30T04:01:48.129Z,25.23
2019-03-30T04:02:14.065Z,25.23
2019-03-30T04:02:40.220Z,25.22
2019-03-30T04:03:06.064Z,25.22
2019-03-30T04:03:32.058Z,25.21
2019-03-30T04:03:58.057Z,25.2
2019-03-30T04:04:24.060Z,25.16
2019-03-30T04:04:50.151Z,25.17
2019-03-30T04:05:16.144Z,25.18
2019-03-30T04:05:42.069Z,25.14
2019-03-30T04:06:08.064Z,25.1
2019-03-30T04:06:34.066Z,25.08
2019-03-30T04:07:00.144Z,25.08
2019-03-30T04:07:26.075Z,25.06
2019-03-30T04:07:52.144Z,25.06
2019-03-30T04:08:18.169Z,25.05
2019-03-30T04:08:44.085Z,25.07
2019-03-30T04:09:10.152Z,25.06
2019-03-30T04:09:36.074Z,25.06
2019-03-30T04:10:02.079Z,25.01
2019-03-30T04:10:28.141Z,25.02
2019-03-30T04:10:54.061Z,25.01
2019-03-30T04:11:20.143Z,25.03
2019-03-30T04:11:46.069Z,25
2019-03-30T04:12:12.088Z,24.98
2019-03-30T04:12:38.086Z,24.99
2019-03-30T04:13:04.140Z,24.96
2019-03-30T04:13:30.154Z,25
2019-03-30T04:13:56.074Z,24.99
2019-03-30T04:14:22.080Z,25
2019-03-30T04:14:48.175Z,24.98
2019-03-30T04:15:14.090Z,24.95
2019-03-30T04:15:40.231Z,24.94
2019-03-30T04:16:06.075Z,24.93
2019-03-30T04:16:32.077Z,24.94
2019-03-30T04:16:58.078Z,24.95
2019-03-30T04:17:24.081Z,24.96
2019-03-30T04:17:50.174Z,24.94
2019-03-30T04:18:16.156Z,24.92
2019-03-30T04:18:42.080Z,24.93
2019-03-30T04:19:08.084Z,24.95
2019-03-30T04:19:34.086Z,24.95
2019-03-30T04:20:00.166Z,24.95
2019-03-30T04:20:26.092Z,24.97
2019-03-30T04:20:52.159Z,24.96
2019-03-30T04:21:18.076Z,24.97
2019-03-30T04:21:44.095Z,24.94
2019-03-30T04:22:10.177Z,24.93
2019-03-30T04:22:36.094Z,24.9
2019-03-30T04:23:02.092Z,24.92
2019-03-30T04:23:28.156Z,24.94
2019-03-30T04:23:54.086Z,24.93
2019-03-30T04:24:20.169Z,24.91
2019-03-30T04:24:46.086Z,24.92
2019-03-30T04:25:12.102Z,24.91
2019-03-30T04:25:38.108Z,24.89
2019-03-30T04:26:04.176Z,24.9
2019-03-30T04:26:30.171Z,24.87
2019-03-30T04:26:56.093Z,24.86
2019-03-30T04:27:22.414Z,24.86
2019-03-30T04:27:48.109Z,24.85
2019-03-30T04:28:14.101Z,24.83
2019-03-30T04:28:40.242Z,24.81
2019-03-30T04:29:06.097Z,24.79
2019-03-30T04:29:32.101Z,24.79
2019-03-30T04:29:58.099Z,24.77
2019-03-30T04:30:24.096Z,24.77
2019-03-30T04:30:50.184Z,24.78
2019-03-30T04:31:16.179Z,24.79
2019-03-30T04:31:42.099Z,24.75
2019-03-30T04:32:08.104Z,24.75
2019-03-30T04:32:34.099Z,24.7
2019-03-30T04:33:00.208Z,24.68
2019-03-30T04:33:26.114Z,24.69
2019-03-30T04:33:52.179Z,24.69
2019-03-30T04:34:18.251Z,24.66
2019-03-30T04:34:44.105Z,24.67
2019-03-30T04:35:10.189Z,24.66
2019-03-30T04:35:36.103Z,24.68
2019-03-30T04:36:02.308Z,24.68
2019-03-30T04:36:28.177Z,24.67
2019-03-30T04:36:54.101Z,24.66
2019-03-30T04:37:20.205Z,24.66
2019-03-30T04:37:46.104Z,24.64
2019-03-30T04:38:12.114Z,24.62
2019-03-30T04:38:38.116Z,24.64
2019-03-30T04:39:04.179Z,24.63
2019-03-30T04:39:30.183Z,24.63
2019-03-30T04:39:56.111Z,24.62
2019-03-30T04:40:22.108Z,24.62
2019-03-30T04:40:48.116Z,24.6
2019-03-30T04:41:14.124Z,24.6
2019-03-30T04:41:40.262Z,24.6
2019-03-30T04:42:06.114Z,24.61
2019-03-30T04:42:32.617Z,24.6
2019-03-30T04:42:58.117Z,24.58
2019-03-30T04:43:24.116Z,24.58
2019-03-30T04:43:50.207Z,24.58
2019-03-30T04:44:16.190Z,24.54
2019-03-30T04:44:42.118Z,24.52
2019-03-30T04:45:08.119Z,24.51
2019-03-30T04:45:34.126Z,24.47
2019-03-30T04:46:00.208Z,24.46
2019-03-30T04:46:26.131Z,24.45
2019-03-30T04:46:52.196Z,24.45
2019-03-30T04:47:18.180Z,24.47
2019-03-30T04:47:44.121Z,24.5
2019-03-30T04:48:10.213Z,24.52
2019-03-30T04:48:36.122Z,24.51
2019-03-30T04:49:02.130Z,24.5
2019-03-30T04:49:28.190Z,24.49
2019-03-30T04:49:54.121Z,24.48
2019-03-30T04:50:20.212Z,24.46
2019-03-30T04:50:46.129Z,24.46
2019-03-30T04:51:12.122Z,24.44
2019-03-30T04:51:38.140Z,24.43
2019-03-30T04:52:04.417Z,24.42
2019-03-30T04:52:30.215Z,24.4
2019-03-30T04:52:56.127Z,24.42
2019-03-30T04:53:22.133Z,24.43
2019-03-30T04:53:48.132Z,24.42
2019-03-30T04:54:14.140Z,24.44
2019-03-30T04:54:40.289Z,24.42
2019-03-30T04:55:06.137Z,24.44
2019-03-30T04:55:32.139Z,24.46
2019-03-30T04:55:58.136Z,24.45
2019-03-30T04:56:24.215Z,24.44
2019-03-30T04:56:50.229Z,24.41
2019-03-30T04:57:16.138Z,24.42
2019-03-30T04:57:42.139Z,24.39
2019-03-30T04:58:08.138Z,24.41
2019-03-30T04:58:34.134Z,24.4
2019-03-30T04:59:00.219Z,24.37
2019-03-30T04:59:26.132Z,24.38
2019-03-30T04:59:52.145Z,24.39
2019-03-30T05:00:18.136Z,24.39
2019-03-30T05:00:44.135Z,24.37
2019-03-30T05:01:10.225Z,24.38
2019-03-30T05:01:36.141Z,24.39
2019-03-30T05:02:02.620Z,24.38
2019-03-30T05:02:28.140Z,24.37
2019-03-30T05:02:54.142Z,24.34
2019-03-30T05:03:20.231Z,24.36
2019-03-30T05:03:46.139Z,24.36
2019-03-30T05:04:12.138Z,24.37
2019-03-30T05:04:38.154Z,24.36
2019-03-30T05:05:04.141Z,24.37
2019-03-30T05:05:30.229Z,24.37
2019-03-30T05:05:56.150Z,24.35
2019-03-30T05:06:22.151Z,24.35
2019-03-30T05:06:48.153Z,24.35
2019-03-30T05:07:14.147Z,24.31
2019-03-30T05:07:40.226Z,24.3
2019-03-30T05:08:06.152Z,24.29
2019-03-30T05:08:32.151Z,24.29
2019-03-30T05:08:58.146Z,24.27
2019-03-30T05:09:24.181Z,24.28
2019-03-30T05:09:50.244Z,24.27
2019-03-30T05:10:16.151Z,24.25
2019-03-30T05:10:42.150Z,24.26
2019-03-30T05:11:08.154Z,24.26
2019-03-30T05:11:34.156Z,24.26
2019-03-30T05:12:00.241Z,24.26
2019-03-30T05:12:26.163Z,24.27
2019-03-30T05:12:52.155Z,24.25
2019-03-30T05:13:18.243Z,24.27
2019-03-30T05:13:44.154Z,24.27
2019-03-30T05:14:10.245Z,24.27
2019-03-30T05:14:36.177Z,24.27
2019-03-30T05:15:02.159Z,24.27
2019-03-30T05:15:28.160Z,24.26
2019-03-30T05:15:54.161Z,24.24
2019-03-30T05:16:20.240Z,24.25
2019-03-30T05:16:46.162Z,24.22
2019-03-30T05:17:12.164Z,24.21
2019-03-30T05:17:38.167Z,24.21
2019-03-30T05:18:04.162Z,24.18
2019-03-30T05:18:30.248Z,24.18
2019-03-30T05:18:56.165Z,24.16
2019-03-30T05:19:22.168Z,24.15
2019-03-30T05:19:48.167Z,24.13
2019-03-30T05:20:14.170Z,24.13
2019-03-30T05:20:40.254Z,24.11
2019-03-30T05:21:06.359Z,24.11
2019-03-30T05:21:32.167Z,24.11
2019-03-30T05:21:58.173Z,24.13
2019-03-30T05:22:24.172Z,24.14
2019-03-30T05:22:50.254Z,24.14
2019-03-30T05:23:16.182Z,24.13
2019-03-30T05:23:42.255Z,24.13
2019-03-30T05:24:08.170Z,24.12
2019-03-30T05:24:34.173Z,24.11
2019-03-30T05:25:00.280Z,24.11
2019-03-30T05:25:26.174Z,24.11
2019-03-30T05:25:52.186Z,24.11
2019-03-30T05:26:18.312Z,24.1
2019-03-30T05:26:44.174Z,24.09
2019-03-30T05:27:10.254Z,24.07
2019-03-30T05:27:36.175Z,24.07
2019-03-30T05:28:02.176Z,24.08
2019-03-30T05:28:28.194Z,24.08
2019-03-30T05:28:54.251Z,24.06
2019-03-30T05:29:20.266Z,24.07
2019-03-30T05:29:46.184Z,24.06
2019-03-30T05:30:12.185Z,24.05
2019-03-30T05:30:38.185Z,24.05
2019-03-30T05:31:04.184Z,24.05
2019-03-30T05:31:30.276Z,24.04
2019-03-30T05:31:56.263Z,24.03
2019-03-30T05:32:22.186Z,24.03
2019-03-30T05:32:48.295Z,24.03
2019-03-30T05:33:14.186Z,24.02
2019-03-30T05:33:40.279Z,24.03
2019-03-30T05:34:06.195Z,24.02
2019-03-30T05:34:32.267Z,24.03
2019-03-30T05:34:58.184Z,24.02
2019-03-30T05:35:24.189Z,23.99
2019-03-30T05:35:50.272Z,24
2019-03-30T05:36:16.193Z,24.01
2019-03-30T05:36:42.198Z,24
2019-03-30T05:37:08.259Z,24.02
2019-03-30T05:37:34.191Z,24.01
2019-03-30T05:38:00.282Z,23.98
2019-03-30T05:38:26.208Z,23.99
2019-03-30T05:38:52.206Z,23.99
2019-03-30T05:39:18.204Z,23.99
2019-03-30T05:39:44.261Z,23.98
2019-03-30T05:40:10.287Z,23.99
2019-03-30T05:40:36.194Z,23.98
2019-03-30T05:41:02.198Z,23.98
2019-03-30T05:41:28.221Z,23.97
2019-03-30T05:41:54.207Z,23.97
2019-03-30T05:42:20.356Z,23.96
2019-03-30T05:42:46.200Z,23.95
2019-03-30T05:43:12.204Z,23.96
2019-03-30T05:43:38.197Z,23.95
2019-03-30T05:44:04.205Z,23.93
2019-03-30T05:44:30.302Z,23.92
2019-03-30T05:44:56.286Z,23.92
2019-03-30T05:45:22.203Z,23.91